Time;durP1;ratioP1;P1;durP2;ratioP2;P2;SDS_P1;SDS_P2;PMS_P1;PMS_P2;Temp;Humidity;BMP_temperature;BMP_pressure;BME280_temperature;BME280_humidity;BME280_pressure;Samples;Min_cycle;Max_cycle;Signal;HPM_P1;HPM_P2
2021/09/30 00:02:16;;;;;;;67.27;44.05;;;;;;;11.30;82.62;100754.81;2204246;79;20959;-76
2021/09/30 00:05:17;;;;;;;63.63;42.95;;;;;;;11.18;82.44;100752.91;2203619;79;21311;-75
2021/09/30 00:08:20;;;;;;;68.02;44.03;;;;;;;11.18;82.44;100752.91;2205818;79;20999;-75
2021/09/30 00:11:26;;;;;;;65.57;42.98;;;;;;;11.15;82.67;100769.98;2201400;79;21471;-74
2021/09/30 00:14:38;;;;;;;60.03;40.98;;;;;;;11.03;82.63;100759.75;2204422;79;21483;-76
2021/09/30 00:40:57;;;;;;;25.53;17.13;;;;;;;10.93;82.98;100798.34;2205976;79;21523;-75
2021/09/30 00:47:33;;;;;;;21.27;13.87;;;;;;;10.90;83.03;100804.80;2201830;79;20972;-75
2021/09/30 00:50:28;;;;;;;20.85;12.47;;;;;;;10.88;83.18;100812.56;2200956;79;21207;-75
2021/09/30 01:52:05;;;;;;;11.30;8.83;;;;;;;10.59;83.46;100857.41;2191386;80;20982;-78
2021/09/30 02:31:06;;;;;;;14.63;9.58;;;;;;;10.80;83.62;100900.92;2182515;80;20972;-73
2021/09/30 03:01:22;;;;;;;12.65;8.43;;;;;;;10.79;83.41;100935.09;2158132;81;21046;-75
2021/09/30 03:04:27;;;;;;;19.40;9.08;;;;;;;10.76;83.51;100949.50;2156918;82;21512;-77
2021/09/30 03:07:30;;;;;;;12.90;8.55;;;;;;;10.76;83.54;100942.86;2157153;81;21006;-76
2021/09/30 03:10:33;;;;;;;15.90;8.73;;;;;;;10.77;83.59;100948.50;2158825;82;21000;-76
2021/09/30 03:13:35;;;;;;;12.15;8.73;;;;;;;10.80;83.54;100951.86;2155053;81;21579;-74
2021/09/30 03:16:50;;;;;;;12.90;9.13;;;;;;;10.81;83.63;100954.34;2159154;81;20955;-77
2021/09/30 03:20:01;;;;;;;13.38;8.85;;;;;;;10.83;83.62;100959.02;2152103;81;21002;-76
2021/09/30 03:23:01;;;;;;;14.55;9.18;;;;;;;10.85;83.60;100969.52;2157139;81;21005;-76
2021/09/30 03:26:03;;;;;;;11.40;7.60;;;;;;;10.83;83.56;100974.95;2154349;80;21018;-74
2021/09/30 03:29:07;;;;;;;15.88;8.45;;;;;;;10.82;83.62;100968.48;2155543;81;20985;-75
2021/09/30 03:32:10;;;;;;;10.63;6.40;;;;;;;10.79;83.60;100963.47;2180043;80;21487;-75
2021/09/30 03:35:20;;;;;;;8.03;5.25;;;;;;;10.80;83.52;100967.78;2190570;80;21020;-76
2021/09/30 03:38:23;;;;;;;10.85;5.28;;;;;;;10.79;83.45;100984.70;2190816;80;20995;-75
2021/09/30 03:41:24;;;;;;;9.13;4.47;;;;;;;10.76;83.39;100983.18;2188799;80;21619;-76
2021/09/30 03:44:26;;;;;;;5.85;4.40;;;;;;;10.76;83.19;100991.14;2133538;83;21019;-75
2021/09/30 03:47:29;;;;;;;4.12;3.15;;;;;;;10.73;83.13;100985.63;2158836;80;21055;-77
2021/09/30 03:51:28;;;;;;;8.48;3.30;;;;;;;10.72;82.84;100991.91;2206449;79;21019;-77
2021/09/30 03:53:57;;;;;;;4.15;2.92;;;;;;;10.71;82.64;100999.53;2158873;80;20958;-77
2021/09/30 04:00:16;;;;;;;3.27;2.08;;;;;;;10.71;82.45;101000.86;2034815;85;21485;-76
2021/09/30 04:03:19;;;;;;;3.95;2.65;;;;;;;10.67;82.21;101004.80;2051420;85;21165;-75
2021/09/30 04:06:22;;;;;;;4.85;2.58;;;;;;;10.67;82.17;101003.48;2184917;79;21004;-76
2021/09/30 04:09:28;;;;;;;3.05;2.20;;;;;;;10.66;82.11;101014.22;2207419;79;21006;-74
2021/09/30 04:12:29;;;;;;;4.53;2.27;;;;;;;10.64;81.89;101027.63;2211272;79;21874;-75
2021/09/30 04:15:31;;;;;;;3.62;2.17;;;;;;;10.62;81.88;101028.28;2210503;79;21220;-75
2021/09/30 04:18:33;;;;;;;2.50;1.85;;;;;;;10.61;81.91;101018.62;2180838;79;21059;-76
2021/09/30 04:21:35;;;;;;;5.70;2.42;;;;;;;10.62;81.72;101027.45;2212040;79;21629;-77
2021/09/30 04:24:41;;;;;;;4.58;2.20;;;;;;;10.59;81.71;101025.92;2202525;79;21028;-76
2021/09/30 04:27:42;;;;;;;3.60;1.70;;;;;;;10.57;81.54;101026.55;2200231;79;21058;-76
2021/09/30 04:30:43;;;;;;;4.20;1.75;;;;;;;10.56;81.49;101031.52;2204261;79;20966;-77
2021/09/30 04:33:51;;;;;;;8.30;2.40;;;;;;;10.53;81.39;101031.78;2167758;79;21015;-79
2021/09/30 04:36:53;;;;;;;5.85;1.98;;;;;;;10.53;81.44;101049.03;2206368;79;20982;-78
2021/09/30 04:39:56;;;;;;;3.10;1.85;;;;;;;10.52;81.47;101050.85;2207318;79;21024;-77
2021/09/30 04:42:58;;;;;;;2.58;2.02;;;;;;;10.53;81.44;101054.34;2190577;80;20986;-76
2021/09/30 04:45:59;;;;;;;4.50;1.55;;;;;;;10.52;81.51;101056.66;2191526;80;21488;-79
2021/09/30 04:49:02;;;;;;;6.15;2.00;;;;;;;10.52;81.52;101056.66;2191067;80;21053;-77
2021/09/30 04:52:05;;;;;;;10.45;2.20;;;;;;;10.51;81.41;101054.50;2190551;80;21961;-77
2021/09/30 04:55:08;;;;;;;6.42;2.25;;;;;;;10.50;81.39;101058.14;2201940;79;21029;-76
2021/09/30 04:58:10;;;;;;;3.50;1.98;;;;;;;10.49;81.41;101061.76;2202435;79;21010;-77
2021/09/30 05:01:12;;;;;;;2.05;1.70;;;;;;;10.51;81.41;101076.22;2198084;79;21572;-78
2021/09/30 05:04:16;;;;;;;2.47;1.70;;;;;;;10.48;81.40;101074.69;2195021;79;21030;-81
2021/09/30 05:07:17;;;;;;;4.47;1.90;;;;;;;10.49;81.44;101083.48;2199467;79;20952;-77
2021/09/30 05:10:20;;;;;;;2.62;1.80;;;;;;;10.48;81.46;101076.02;2188738;80;21519;-78
2021/09/30 05:13:26;;;;;;;2.12;1.80;;;;;;;10.48;81.51;101081.81;2192114;80;21076;-79
2021/09/30 05:16:27;;;;;;;3.30;1.50;;;;;;;10.48;81.53;101085.80;2190242;80;21747;-73
2021/09/30 05:19:39;;;;;;;1.90;1.67;;;;;;;10.48;81.38;101087.13;2174624;80;21050;-78
2021/09/30 05:22:42;;;;;;;2.42;1.55;;;;;;;10.42;81.30;101083.22;2190618;80;21122;-79
2021/09/30 05:25:43;;;;;;;3.87;1.85;;;;;;;10.41;81.47;101089.98;2184932;80;21573;-76
2021/09/30 05:28:46;;;;;;;3.08;1.70;;;;;;;10.39;81.32;101098.10;2196094;80;20959;-77
2021/09/30 05:31:47;;;;;;;4.08;1.70;;;;;;;10.38;81.29;101103.53;2183748;80;21548;-77
2021/09/30 05:35:08;;;;;;;5.00;1.27;;;;;;;10.34;81.09;101100.34;2169645;80;21648;-79
2021/09/30 05:38:12;;;;;;;1.72;1.62;;;;;;;10.29;81.06;101104.72;2165993;80;20992;-78
2021/09/30 05:41:13;;;;;;;4.95;1.98;;;;;;;10.23;80.86;101099.13;2141340;81;21517;-79
2021/09/30 05:44:20;;;;;;;1.60;1.27;;;;;;;10.20;80.88;101110.02;2140559;81;20948;-78
2021/09/30 05:47:20;;;;;;;2.55;1.55;;;;;;;10.12;80.65;101107.22;2167000;80;21029;-77
2021/09/30 05:50:23;;;;;;;5.40;1.50;;;;;;;10.06;80.61;101103.31;2168368;80;21554;-77
2021/09/30 05:53:35;;;;;;;2.85;1.20;;;;;;;10.01;80.54;101112.17;2107205;81;21052;-78
2021/09/30 05:56:39;;;;;;;3.17;1.60;;;;;;;9.97;80.45;101117.41;2133825;81;21046;-77
2021/09/30 05:59:40;;;;;;;1.90;1.20;;;;;;;9.93;80.33;101118.65;2146033;81;21042;-76
2021/09/30 06:12:25;;;;;;;2.00;1.50;;;;;;;9.90;80.22;101136.16;2068595;83;21023;-79
2021/09/30 06:15:28;;;;;;;4.28;1.70;;;;;;;9.93;80.10;101138.53;2127643;82;20983;-80
2021/09/30 06:18:28;;;;;;;2.02;1.60;;;;;;;9.91;79.99;101143.13;2137721;80;20998;-79
2021/09/30 06:21:31;;;;;;;2.62;1.40;;;;;;;9.95;80.05;101142.73;2166286;80;21019;-78
2021/09/30 06:24:33;;;;;;;2.85;1.45;;;;;;;9.94;79.80;101155.64;2166654;80;20994;-78
2021/09/30 06:27:36;;;;;;;2.60;1.90;;;;;;;9.93;79.89;101145.16;2165897;81;21351;-78
2021/09/30 06:30:38;;;;;;;4.20;1.50;;;;;;;9.96;79.93;101142.23;2163700;81;20986;-78
2021/09/30 06:33:56;;;;;;;4.87;1.55;;;;;;;9.98;79.97;101146.92;2186305;80;21062;-79
2021/09/30 06:37:11;;;;;;;1.65;1.55;;;;;;;10.40;80.71;101163.44;2190810;80;20986;-77
2021/09/30 06:40:13;;;;;;;7.87;1.65;;;;;;;11.16;80.54;101159.95;2196050;80;21002;-76
2021/09/30 06:43:16;;;;;;;3.75;1.40;;;;;;;11.59;79.72;101150.52;2188901;80;21014;-75
2021/09/30 06:46:35;;;;;;;3.55;1.62;;;;;;;11.63;78.78;101155.41;2188353;80;21041;-76
2021/09/30 06:49:39;;;;;;;6.05;1.72;;;;;;;11.78;79.07;101167.70;2190847;80;21109;-77
2021/09/30 06:53:01;;;;;;;1.85;1.30;;;;;;;12.31;79.03;101168.78;2190042;80;21134;-77
2021/09/30 06:56:11;;;;;;;3.30;2.47;;;;;;;13.07;78.16;101170.02;2145451;81;21073;-78
2021/09/30 06:59:20;;;;;;;2.55;1.70;;;;;;;13.56;77.15;101168.45;2128350;83;20995;-77
2021/09/30 07:02:41;;;;;;;6.25;1.85;;;;;;;13.58;76.13;101169.63;2130871;81;21034;-77
2021/09/30 07:05:50;;;;;;;3.27;1.40;;;;;;;13.74;74.88;101179.03;2161928;80;21109;-77
2021/09/30 07:08:54;;;;;;;3.75;1.70;;;;;;;13.92;74.97;101178.91;2157900;81;21035;-78
2021/09/30 07:11:55;;;;;;;6.12;1.47;;;;;;;13.95;74.18;101176.42;2154054;81;21503;-77
2021/09/30 07:14:57;;;;;;;3.55;1.82;;;;;;;14.02;74.02;101180.09;2158710;81;21546;-77
2021/09/30 07:17:59;;;;;;;5.53;1.82;;;;;;;14.25;73.49;101185.66;2155834;81;20997;-77
2021/09/30 07:21:00;;;;;;;4.87;1.40;;;;;;;14.11;71.86;101198.64;2154558;81;21015;-77
2021/09/30 07:24:02;;;;;;;3.15;1.60;;;;;;;14.05;71.80;101199.30;2156950;81;21022;-77
2021/09/30 07:27:07;;;;;;;1.75;1.35;;;;;;;14.03;71.90;101204.46;2155686;81;21490;-77
2021/09/30 07:30:09;;;;;;;6.80;1.30;;;;;;;14.01;71.13;101218.45;2150371;81;21006;-78
2021/09/30 07:33:11;;;;;;;2.47;1.17;;;;;;;13.84;69.51;101215.73;2155696;81;21068;-76
2021/09/30 07:36:13;;;;;;;3.52;1.40;;;;;;;13.58;69.71;101226.97;2152674;81;20982;-77
2021/09/30 07:39:16;;;;;;;5.35;1.70;;;;;;;13.46;70.41;101233.08;2201278;79;20986;-78
2021/09/30 07:42:18;;;;;;;3.20;1.70;;;;;;;13.49;70.29;101231.42;2204763;79;21029;-77
2021/09/30 07:45:21;;;;;;;5.62;2.00;;;;;;;13.59;69.59;101232.63;2201189;79;21009;-77
2021/09/30 07:48:23;;;;;;;4.83;1.60;;;;;;;13.99;69.08;101222.60;2211920;79;20959;-77
2021/09/30 07:51:25;;;;;;;2.40;1.20;;;;;;;14.32;69.15;101222.70;2212833;79;21493;-78
2021/09/30 07:54:26;;;;;;;3.12;1.32;;;;;;;14.59;68.15;101222.11;2209578;79;21644;-76
2021/09/30 07:57:28;;;;;;;7.67;2.47;;;;;;;14.51;67.64;101224.23;2150771;81;20996;-77
2021/09/30 08:00:30;;;;;;;3.22;1.85;;;;;;;14.42;67.01;101224.72;2153618;81;21046;-78
2021/09/30 08:03:31;;;;;;;4.20;1.55;;;;;;;14.24;66.83;101222.17;2162566;81;20989;-76
2021/09/30 08:06:33;;;;;;;1.67;1.00;;;;;;;14.28;66.95;101224.86;2150935;81;20960;-76
2021/09/30 08:09:35;;;;;;;1.90;1.00;;;;;;;14.19;66.03;101226.33;2152208;81;21082;-77
2021/09/30 08:12:37;;;;;;;3.62;1.32;;;;;;;14.21;66.05;101225.17;2152262;81;21067;-79
2021/09/30 08:15:38;;;;;;;3.83;1.20;;;;;;;14.47;65.60;101225.07;2150389;81;20962;-78
2021/09/30 08:18:40;;;;;;;2.62;1.10;;;;;;;14.85;63.58;101223.27;2154531;81;20984;-77
2021/09/30 08:21:47;;;;;;;1.62;1.00;;;;;;;15.14;63.61;101218.72;2150809;81;21036;-77
2021/09/30 08:24:46;;;;;;;4.97;1.07;;;;;;;15.69;63.00;101213.41;2148415;81;20996;-77
2021/09/30 08:27:47;;;;;;;5.70;1.30;;;;;;;16.00;63.40;101217.13;2148976;81;21039;-77
2021/09/30 08:30:51;;;;;;;5.25;1.10;;;;;;;16.46;62.16;101216.65;2147684;81;20913;-77
2021/09/30 08:33:55;;;;;;;4.50;1.40;;;;;;;16.86;62.59;101216.02;2153036;81;21032;-78
2021/09/30 08:36:55;;;;;;;2.10;1.17;;;;;;;17.35;62.91;101219.57;2155983;81;20981;-77
2021/09/30 08:39:57;;;;;;;3.40;0.95;;;;;;;17.55;59.37;101219.84;2154550;81;21091;-77
2021/09/30 08:42:58;;;;;;;2.15;1.12;;;;;;;17.60;58.80;101226.84;2150883;81;20988;-77
2021/09/30 08:46:00;;;;;;;3.55;1.05;;;;;;;17.61;58.08;101226.32;2143911;81;21062;-78
2021/09/30 08:49:03;;;;;;;2.90;1.05;;;;;;;17.74;59.56;101218.45;2152599;81;20986;-77
2021/09/30 08:52:05;;;;;;;2.20;1.00;;;;;;;17.78;56.53;101217.56;2150533;81;20980;-78
2021/09/30 08:55:08;;;;;;;1.98;1.00;;;;;;;17.76;56.37;101218.25;2153125;81;21089;-77
2021/09/30 08:58:10;;;;;;;4.67;1.07;;;;;;;17.66;56.25;101219.89;2153996;81;21033;-77
2021/09/30 09:01:13;;;;;;;2.75;0.88;;;;;;;17.63;56.29;101213.05;2150319;81;21567;-77
2021/09/30 09:04:20;;;;;;;3.50;1.10;;;;;;;17.67;55.44;101213.49;2153428;81;21011;-77
2021/09/30 09:07:25;;;;;;;2.25;1.22;;;;;;;17.68;55.05;101209.78;2152642;81;20937;-78
2021/09/30 09:10:34;;;;;;;2.58;1.35;;;;;;;17.78;55.05;101213.53;2152857;81;21043;-78
2021/09/30 09:13:35;;;;;;;1.52;0.80;;;;;;;17.85;54.38;101212.63;2151727;81;21060;-78
2021/09/30 09:16:37;;;;;;;2.20;1.12;;;;;;;17.88;54.22;101207.41;2156993;81;20953;-77
2021/09/30 09:19:52;;;;;;;4.05;1.10;;;;;;;17.96;53.99;101204.58;2159038;81;21033;-77
2021/09/30 09:22:54;;;;;;;2.70;1.02;;;;;;;18.09;54.08;101207.42;2154235;81;21443;-78
2021/09/30 09:26:13;;;;;;;3.50;1.00;;;;;;;18.18;52.14;101209.99;2152025;81;21848;-77
2021/09/30 09:29:17;;;;;;;4.58;1.00;;;;;;;18.28;53.44;101216.72;2154357;81;21037;-77
2021/09/30 09:32:18;;;;;;;2.87;1.50;;;;;;;18.41;53.13;101216.02;2151786;81;21506;-78
2021/09/30 09:35:19;;;;;;;3.47;0.85;;;;;;;18.55;52.49;101215.11;2133101;82;21034;-77
2021/09/30 09:38:44;;;;;;;4.30;1.25;;;;;;;18.63;52.20;101218.19;2128342;82;21550;-77
2021/09/30 09:41:45;;;;;;;1.37;0.80;;;;;;;18.67;52.23;101218.62;2134854;82;21023;-77
2021/09/30 09:45:10;;;;;;;3.30;1.30;;;;;;;18.57;51.49;101221.66;2136471;82;21520;-77
2021/09/30 09:48:15;;;;;;;4.00;1.27;;;;;;;18.70;51.06;101229.84;2129835;82;21092;-77
2021/09/30 09:51:16;;;;;;;2.83;1.20;;;;;;;18.64;50.40;101229.28;2128171;82;21045;-77
2021/09/30 09:58:15;;;;;;;3.37;0.90;;;;;;;18.65;50.54;101218.02;2068757;86;21075;-76
2021/09/30 10:01:22;;;;;;;2.42;1.00;;;;;;;18.74;50.18;101217.70;2087692;84;21065;-76
2021/09/30 10:04:27;;;;;;;4.40;0.88;;;;;;;18.65;49.84;101222.87;2098174;84;20956;-75
2021/09/30 10:07:29;;;;;;;3.77;1.00;;;;;;;18.75;50.10;101228.80;2095770;84;20992;-76
2021/09/30 10:10:31;;;;;;;3.35;1.10;;;;;;;18.73;50.49;101228.63;2099297;84;21064;-75
2021/09/30 10:13:37;;;;;;;4.33;1.32;;;;;;;18.91;50.03;101227.66;2097792;83;21641;-76
2021/09/30 10:16:39;;;;;;;2.00;1.00;;;;;;;18.99;49.34;101232.08;2032708;86;21702;-75
2021/09/30 10:19:43;;;;;;;5.67;0.80;;;;;;;18.96;49.52;101236.50;2085969;85;21008;-75
2021/09/30 10:22:55;;;;;;;3.40;1.00;;;;;;;19.08;49.40;101232.77;2034824;86;21106;-75
2021/09/30 10:26:01;;;;;;;3.70;1.42;;;;;;;19.17;48.42;101237.78;2092917;85;21085;-75
2021/09/30 10:29:03;;;;;;;1.92;1.00;;;;;;;18.97;47.68;101233.61;2094907;84;21061;-74
2021/09/30 10:32:07;;;;;;;2.17;0.95;;;;;;;18.94;49.24;101238.55;2095656;84;20955;-75
2021/09/30 10:35:11;;;;;;;3.47;1.20;;;;;;;18.97;48.65;101234.95;2101326;84;21023;-75
2021/09/30 10:38:30;;;;;;;4.87;1.10;;;;;;;18.97;48.19;101243.02;2066153;84;21488;-75
2021/09/30 10:41:36;;;;;;;6.53;1.10;;;;;;;18.90;47.50;101244.84;2107936;84;20949;-76
2021/09/30 10:44:37;;;;;;;4.85;1.00;;;;;;;18.88;47.92;101243.36;2108068;83;20969;-76
2021/09/30 10:47:39;;;;;;;5.03;1.17;;;;;;;18.89;47.20;101242.33;2104819;83;21038;-76
2021/09/30 10:50:47;;;;;;;3.17;1.35;;;;;;;18.65;47.31;101239.00;2098401;83;21458;-76
2021/09/30 10:53:53;;;;;;;2.98;1.00;;;;;;;18.43;47.37;101244.88;2084483;84;21346;-76
2021/09/30 10:56:55;;;;;;;3.10;1.00;;;;;;;18.40;47.35;101250.63;2124956;82;21067;-75
2021/09/30 10:59:56;;;;;;;2.27;1.00;;;;;;;18.36;47.44;101244.81;2145286;82;20960;-75
2021/09/30 11:03:09;;;;;;;5.67;1.10;;;;;;;18.51;47.15;101242.06;2148969;82;21019;-75
2021/09/30 11:06:14;;;;;;;5.05;0.98;;;;;;;18.52;45.29;101241.03;2143249;83;21491;-75
2021/09/30 11:09:23;;;;;;;4.15;1.10;;;;;;;18.46;46.04;101237.77;2146943;82;21023;-75
2021/09/30 11:12:24;;;;;;;5.83;1.20;;;;;;;18.42;46.62;101245.08;2147401;82;21032;-75
2021/09/30 11:16:00;;;;;;;4.60;1.12;;;;;;;18.49;47.19;101236.56;2146316;82;21015;-75
2021/09/30 11:19:22;;;;;;;4.00;1.30;;;;;;;18.64;46.10;101236.00;2148871;81;21054;-76
2021/09/30 11:22:29;;;;;;;7.17;1.00;;;;;;;18.74;45.33;101235.17;2145159;82;21081;-76
2021/09/30 11:26:06;;;;;;;4.20;1.10;;;;;;;18.60;45.75;101241.42;2147044;82;21557;-76
2021/09/30 11:29:29;;;;;;;2.12;0.90;;;;;;;18.65;45.64;101239.52;2146780;82;21101;-75
2021/09/30 11:32:30;;;;;;;4.85;0.95;;;;;;;18.55;43.28;101240.64;2139438;82;21082;-75
2021/09/30 11:35:33;;;;;;;5.42;1.35;;;;;;;18.52;45.50;101246.92;2147323;81;21061;-75
2021/09/30 11:38:34;;;;;;;4.20;1.10;;;;;;;18.41;45.29;101242.05;2145133;82;21061;-75
2021/09/30 11:41:40;;;;;;;4.47;0.82;;;;;;;18.44;45.33;101244.36;2145547;82;21018;-75
2021/09/30 11:44:58;;;;;;;3.72;1.00;;;;;;;18.46;44.91;101239.63;2142710;82;20999;-75
2021/09/30 11:48:06;;;;;;;3.60;0.88;;;;;;;18.36;45.55;101238.09;2146012;83;20937;-74
2021/09/30 11:51:08;;;;;;;3.35;1.22;;;;;;;18.37;44.85;101240.27;2145253;82;21085;-75
2021/09/30 11:54:19;;;;;;;2.67;1.00;;;;;;;18.32;44.15;101241.34;2150562;82;20995;-75
2021/09/30 11:57:27;;;;;;;3.52;1.20;;;;;;;18.12;44.08;101239.78;2145708;81;21128;-75
2021/09/30 12:00:29;;;;;;;3.22;0.98;;;;;;;18.12;44.54;101230.39;2147857;82;21018;-76
2021/09/30 12:03:36;;;;;;;1.72;1.02;;;;;;;18.21;45.32;101240.50;2147484;81;21491;-75
2021/09/30 12:06:47;;;;;;;3.20;1.15;;;;;;;18.27;44.73;101246.45;2143518;82;21007;-75
2021/09/30 12:09:54;;;;;;;2.95;0.90;;;;;;;18.29;45.45;101247.93;2148164;81;20987;-75
2021/09/30 12:12:56;;;;;;;3.35;1.10;;;;;;;18.35;44.29;101239.62;2146200;81;21087;-75
2021/09/30 12:16:02;;;;;;;3.80;0.85;;;;;;;18.27;44.81;101245.97;2147792;81;21030;-75
2021/09/30 12:19:05;;;;;;;5.33;1.47;;;;;;;18.30;45.42;101244.73;2142882;81;20936;-75
2021/09/30 12:22:13;;;;;;;3.72;1.52;;;;;;;18.42;44.70;101250.45;2148179;81;21026;-75
2021/09/30 12:25:19;;;;;;;1.62;0.90;;;;;;;18.29;44.80;101239.87;2149588;82;21041;-75
2021/09/30 12:28:22;;;;;;;5.35;1.10;;;;;;;18.27;44.57;101237.91;2143912;83;20999;-76
2021/09/30 12:31:24;;;;;;;6.28;1.05;;;;;;;18.14;44.81;101248.50;2146723;82;21003;-75
2021/09/30 12:34:26;;;;;;;3.30;1.00;;;;;;;18.18;44.16;101242.23;2143168;82;20929;-75
2021/09/30 12:37:34;;;;;;;5.80;1.20;;;;;;;18.19;44.38;101240.70;2144707;81;20975;-76
2021/09/30 12:40:46;;;;;;;2.85;0.98;;;;;;;18.12;43.98;101247.84;2145559;82;20990;-75
2021/09/30 12:43:48;;;;;;;3.90;1.30;;;;;;;17.97;44.17;101238.48;2145420;82;21082;-75
2021/09/30 12:46:52;;;;;;;2.45;1.00;;;;;;;17.95;44.00;101235.14;2145858;82;21007;-75
2021/09/30 12:50:13;;;;;;;4.92;1.72;;;;;;;17.80;42.98;101237.03;2146933;82;21827;-76
2021/09/30 12:53:18;;;;;;;3.50;1.27;;;;;;;17.67;43.79;101237.65;2144807;83;21030;-76
2021/09/30 12:56:22;;;;;;;5.42;1.42;;;;;;;17.56;44.12;101239.45;2139873;83;21170;-75
2021/09/30 12:59:26;;;;;;;5.95;1.20;;;;;;;17.57;44.40;101236.59;2120969;83;21067;-74
2021/09/30 13:02:27;;;;;;;2.40;1.07;;;;;;;17.59;44.02;101244.45;2125125;83;21774;-76
2021/09/30 13:05:35;;;;;;;2.00;0.90;;;;;;;17.50;44.34;101242.88;2119491;83;21502;-75
2021/09/30 13:08:43;;;;;;;3.17;1.17;;;;;;;17.46;43.57;101237.06;2116686;83;21101;-75
2021/09/30 13:11:53;;;;;;;4.50;1.30;;;;;;;17.36;44.01;101245.37;2098882;84;22178;-75
2021/09/30 13:14:55;;;;;;;5.10;1.00;;;;;;;17.28;44.34;101242.77;2076862;84;21567;-75
2021/09/30 13:18:02;;;;;;;3.92;1.15;;;;;;;17.09;43.63;101216.00;2078077;85;21489;-75
2021/09/30 13:21:07;;;;;;;3.58;1.10;;;;;;;17.09;43.71;101242.81;2080282;85;21491;-75
2021/09/30 13:24:09;;;;;;;2.62;0.90;;;;;;;16.98;43.88;101230.67;2109555;84;21021;-75
2021/09/30 13:27:14;;;;;;;3.55;1.52;;;;;;;16.94;44.40;101235.22;2109766;84;21029;-75
2021/09/30 13:30:28;;;;;;;3.85;1.20;;;;;;;16.87;44.38;101233.78;2121547;83;21731;-76
2021/09/30 13:33:30;;;;;;;4.17;1.05;;;;;;;16.84;44.94;101235.49;2136178;82;21462;-75
2021/09/30 13:36:32;;;;;;;3.67;0.90;;;;;;;16.91;44.88;101239.09;2129883;82;21002;-75
2021/09/30 13:39:34;;;;;;;2.08;0.80;;;;;;;16.83;44.61;101237.83;2128977;83;21344;-75
2021/09/30 13:42:38;;;;;;;4.70;1.07;;;;;;;16.77;44.75;101231.85;2098269;84;20984;-75
2021/09/30 13:45:40;;;;;;;2.70;0.90;;;;;;;16.78;45.04;101233.02;2096852;84;21612;-76
2021/09/30 13:48:42;;;;;;;5.55;1.17;;;;;;;16.71;45.20;101240.58;2099512;84;21031;-76
2021/09/30 13:51:43;;;;;;;3.77;0.98;;;;;;;16.69;45.32;101238.58;2100699;83;21062;-73
2021/09/30 13:54:47;;;;;;;6.83;1.50;;;;;;;16.61;45.52;101237.30;2104715;83;20999;-74
2021/09/30 13:57:49;;;;;;;3.72;0.93;;;;;;;16.56;45.42;101235.18;2122056;83;21062;-76
2021/09/30 14:00:50;;;;;;;5.53;1.30;;;;;;;16.43;45.59;101239.78;2121278;83;21955;-80
2021/09/30 14:03:53;;;;;;;3.08;1.67;;;;;;;16.30;46.02;101237.70;2126290;83;21595;-74
2021/09/30 14:06:56;;;;;;;4.65;1.25;;;;;;;16.08;46.27;101237.16;2120737;83;21704;-75
2021/09/30 14:10:00;;;;;;;2.10;1.30;;;;;;;15.95;46.86;101237.71;2122594;83;21011;-74
2021/09/30 14:13:01;;;;;;;4.17;1.17;;;;;;;15.82;46.94;101234.24;2127622;83;21035;-73
2021/09/30 14:16:05;;;;;;;2.40;1.15;;;;;;;15.79;47.40;101237.27;2108228;84;21526;-75
2021/09/30 14:19:06;;;;;;;3.20;1.07;;;;;;;15.68;47.11;101235.83;2065939;85;21092;-75
2021/09/30 14:22:11;;;;;;;3.12;0.90;;;;;;;15.72;47.80;101236.31;2125104;83;21031;-75
2021/09/30 14:25:14;;;;;;;4.08;1.40;;;;;;;15.77;47.35;101234.44;2107918;83;21011;-75
2021/09/30 14:28:16;;;;;;;6.53;1.47;;;;;;;15.80;47.53;101232.78;2102130;83;21057;-75
2021/09/30 14:31:17;;;;;;;4.03;1.32;;;;;;;15.87;47.71;101231.05;2047420;85;21625;-75
2021/09/30 14:34:19;;;;;;;4.78;1.37;;;;;;;15.93;47.52;101229.52;2084059;84;21810;-74
2021/09/30 14:37:21;;;;;;;2.98;1.05;;;;;;;15.98;47.59;101232.01;2091868;84;21036;-75
2021/09/30 14:40:23;;;;;;;2.52;1.05;;;;;;;15.96;47.58;101227.84;2067762;84;21001;-75
2021/09/30 14:43:36;;;;;;;3.00;1.00;;;;;;;15.96;47.89;101230.00;2104609;83;21083;-75
2021/09/30 14:46:32;;;;;;;3.90;1.05;;;;;;;15.91;47.84;101224.36;2107192;84;21025;-75
2021/09/30 14:49:38;;;;;;;3.77;1.85;;;;;;;15.75;48.14;101234.63;2099054;83;21050;-75
2021/09/30 14:52:37;;;;;;;6.70;2.37;;;;;;;15.60;48.38;101235.83;2075040;84;21604;-75
2021/09/30 14:55:40;;;;;;;7.25;1.70;;;;;;;15.53;48.91;101236.68;2105984;83;21415;-74
2021/09/30 14:58:41;;;;;;;3.17;1.60;;;;;;;15.39;48.98;101231.02;2141164;82;21056;-74
2021/09/30 15:01:43;;;;;;;4.72;1.90;;;;;;;15.28;49.93;101235.91;2146855;82;21063;-73
2021/09/30 15:04:49;;;;;;;8.23;1.80;;;;;;;15.16;50.31;101234.09;2149015;81;21535;-74
2021/09/30 15:07:57;;;;;;;3.60;1.40;;;;;;;15.04;50.27;101238.95;2104306;81;20996;-73
2021/09/30 15:10:58;;;;;;;3.58;1.40;;;;;;;14.90;50.89;101233.79;2123195;82;21022;-76
2021/09/30 15:14:00;;;;;;;2.95;2.10;;;;;;;14.83;51.54;101238.62;2150283;82;21030;-74
2021/09/30 15:23:13;;;;;;;6.05;3.60;;;;;;;14.75;52.90;101236.30;2149087;81;21000;-73
2021/09/30 15:26:16;;;;;;;11.40;4.67;;;;;;;14.76;52.90;101234.46;2144846;82;20987;-75
2021/09/30 15:29:19;;;;;;;18.32;6.47;;;;;;;14.77;53.08;101231.61;2145041;82;21024;-74
2021/09/30 15:32:21;;;;;;;18.23;8.70;;;;;;;14.76;53.05;101229.95;2150049;82;21048;-75
2021/09/30 15:35:23;;;;;;;18.62;8.25;;;;;;;14.74;53.10;101231.94;2149280;81;21640;-74
2021/09/30 15:38:26;;;;;;;20.82;8.20;;;;;;;14.73;53.46;101232.95;2148904;81;21068;-74
2021/09/30 15:41:30;;;;;;;13.88;6.03;;;;;;;14.69;53.92;101232.94;2146414;81;22118;-75
2021/09/30 15:44:33;;;;;;;17.10;7.08;;;;;;;14.68;53.65;101232.61;2148148;82;21037;-74
2021/09/30 15:47:35;;;;;;;20.05;7.67;;;;;;;14.61;54.46;101228.92;2147782;82;20972;-75
2021/09/30 15:50:36;;;;;;;16.80;7.00;;;;;;;14.53;55.28;101230.28;2145473;81;21054;-74
2021/09/30 15:53:39;;;;;;;12.33;5.78;;;;;;;14.43;55.27;101230.89;2144977;82;21045;-74
2021/09/30 15:56:42;;;;;;;20.27;9.53;;;;;;;14.33;55.15;101219.87;2144033;82;21418;-74
2021/09/30 15:59:43;;;;;;;13.08;6.28;;;;;;;14.28;55.00;101226.20;2077405;84;21015;-74
2021/09/30 16:02:45;;;;;;;12.33;4.00;;;;;;;14.17;55.41;101231.02;2095624;84;21518;-74
2021/09/30 16:05:46;;;;;;;11.45;5.10;;;;;;;14.10;55.74;101233.48;2079785;84;21529;-75
2021/09/30 16:08:49;;;;;;;10.28;4.60;;;;;;;14.03;56.19;101234.64;2074095;84;21520;-74
2021/09/30 16:11:51;;;;;;;10.95;4.10;;;;;;;13.94;56.69;101231.62;2074325;84;21071;-73
2021/09/30 16:14:53;;;;;;;8.93;4.37;;;;;;;13.79;57.39;101230.04;2075207;84;21498;-73
2021/09/30 16:17:54;;;;;;;12.95;5.20;;;;;;;13.63;57.44;101236.66;2078069;84;21074;-74
2021/09/30 16:20:56;;;;;;;11.95;4.70;;;;;;;13.51;57.85;101235.25;2076144;84;21098;-72
2021/09/30 16:23:58;;;;;;;13.30;4.75;;;;;;;13.37;58.22;101241.49;2077785;84;21173;-72
2021/09/30 16:26:59;;;;;;;9.35;4.72;;;;;;;13.21;58.36;101245.38;2076375;84;21000;-72
2021/09/30 16:30:03;;;;;;;8.45;4.30;;;;;;;13.03;58.97;101244.58;2075519;84;21574;-72
2021/09/30 16:33:05;;;;;;;10.65;3.98;;;;;;;12.88;59.15;101254.45;2076073;84;22367;-73
2021/09/30 16:36:07;;;;;;;8.68;4.55;;;;;;;12.71;59.30;101255.31;2076815;84;21039;-73
2021/09/30 16:39:12;;;;;;;11.57;5.70;;;;;;;12.55;59.68;101246.67;2073359;84;21003;-71
2021/09/30 16:42:13;;;;;;;11.93;4.22;;;;;;;12.46;59.98;101254.25;2075324;84;21014;-72
2021/09/30 16:45:17;;;;;;;14.47;6.15;;;;;;;12.31;60.10;101255.27;2076209;84;21039;-72
2021/09/30 16:48:19;;;;;;;11.00;4.33;;;;;;;12.13;60.57;101256.55;2078351;84;21050;-72
2021/09/30 16:51:20;;;;;;;7.75;4.35;;;;;;;11.97;60.99;101255.89;2074026;84;21024;-73
2021/09/30 16:54:22;;;;;;;11.08;4.92;;;;;;;11.83;60.98;101262.50;2074915;84;21556;-73
2021/09/30 16:57:24;;;;;;;11.48;4.85;;;;;;;11.62;61.15;101261.38;2080162;84;21049;-73
2021/09/30 17:00:26;;;;;;;33.85;14.43;;;;;;;11.44;61.36;101259.98;2083565;84;21060;-73
2021/09/30 17:03:27;;;;;;;27.80;11.90;;;;;;;11.26;61.84;101261.69;2084071;84;20993;-73
2021/09/30 17:06:29;;;;;;;32.95;11.45;;;;;;;11.19;62.31;101266.75;2083163;84;20963;-74
2021/09/30 17:09:31;;;;;;;26.87;9.43;;;;;;;11.08;62.65;101275.38;2082342;84;21036;-73